LKSO weather

Soběslav
Soběslav, South Bohemian Region, Czechia

Public forecast

Using degrees Celsius for public forecast. Weather courtesy of forecast.io.

METAR (pilot weather report)

Closest report is Čáslav Air Base, 49.1 nm (90.9 km) NNE. Retrieved 2019/09/15 08:00 UTC (42 minutes ago):

LKCV 150800Z 13005KT 100V170 CAVOK 16/09 Q1026 NOSIG RMK BLU BLU

TAF (pilot weather forecast)

Closest forecast is Čáslav Air Base, 49.1 nm (90.9 km) NNE. Retrieved 2019/09/15 06:05 UTC (3 hours ago):

TAF LKCV 150500Z 1506/1606 13005KT CAVOK BECMG 1509/1511 25008KT BECMG 1522/1600 29006KT